Time;durP1;ratioP1;P1;durP2;ratioP2;P2;SDS_P1;SDS_P2;PMS_P1;PMS_P2;Temp;Humidity;BMP_temperature;BMP_pressure;BME280_temperature;BME280_humidity;BME280_pressure;Samples;Min_cycle;Max_cycle;Signal;HPM_P1;HPM_P2
2022/01/17 00:00:17;;;;;;;16.13;4.67;;;;;;;-144.19;100.00;78449.66;6156601;23;20022;-90
2022/01/17 00:02:45;;;;;;;8.05;3.47;;;;;;;-144.19;100.00;78445.72;6153934;23;20336;-87
2022/01/17 00:05:12;;;;;;;12.52;4.43;;;;;;;-144.19;100.00;78441.78;6129193;23;20025;-87
2022/01/17 00:07:39;;;;;;;11.75;3.67;;;;;;;-144.19;100.00;78441.78;6130253;23;20548;-87
2022/01/17 00:10:06;;;;;;;7.93;3.73;;;;;;;-144.19;100.00;78469.34;6130020;23;20025;-90
2022/01/17 00:12:36;;;;;;;12.52;3.70;;;;;;;-144.19;100.00;78481.16;6129993;23;20036;-87
2022/01/17 00:15:12;;;;;;;8.55;3.30;;;;;;;-144.19;100.00;78475.25;6130496;23;20030;-88
2022/01/17 00:17:41;;;;;;;12.05;3.38;;;;;;;-144.19;100.00;78485.09;6155871;23;20021;-88
2022/01/17 00:20:10;;;;;;;12.45;3.05;;;;;;;-144.19;100.00;78479.19;6130471;23;20031;-88
2022/01/17 00:22:39;;;;;;;9.02;2.97;;;;;;;-144.19;100.00;78473.28;6129846;23;20025;-87
2022/01/17 00:25:07;;;;;;;12.35;3.40;;;;;;;-144.19;100.00;78489.03;6130282;23;20101;-89
2022/01/17 00:27:34;;;;;;;13.20;2.85;;;;;;;-144.19;100.00;78492.97;6156544;23;20026;-87
2022/01/17 00:30:03;;;;;;;10.98;2.88;;;;;;;-144.19;100.00;78492.97;6130687;23;20021;-87
2022/01/17 00:32:30;;;;;;;15.65;3.50;;;;;;;-144.19;100.00;78506.75;6128212;23;20093;-87
2022/01/17 00:34:57;;;;;;;10.88;2.13;;;;;;;-144.19;100.00;78481.16;6128817;23;20021;-87
2022/01/17 00:37:24;;;;;;;5.90;2.08;;;;;;;-144.19;100.00;78477.22;6129734;23;20053;-87
2022/01/17 00:39:50;;;;;;;8.03;2.60;;;;;;;-144.19;100.00;78467.38;6129426;23;20022;-85
2022/01/17 00:42:17;;;;;;;8.65;2.17;;;;;;;-144.19;100.00;78502.81;6162508;23;20060;-86
2022/01/17 00:44:44;;;;;;;14.32;2.33;;;;;;;-144.19;100.00;78502.81;6137175;23;20367;-86
2022/01/17 00:47:11;;;;;;;5.80;1.93;;;;;;;-144.19;100.00;78504.78;6132394;23;20025;-87
2022/01/17 00:49:37;;;;;;;7.43;1.93;;;;;;;-144.19;100.00;78492.97;6131025;23;20257;-87
2022/01/17 00:52:04;;;;;;;12.48;2.28;;;;;;;-144.19;100.00;78471.31;6130538;23;20025;-86
2022/01/17 00:54:31;;;;;;;13.65;2.47;;;;;;;-144.19;100.00;78512.66;6158060;23;20100;-85
2022/01/17 00:56:58;;;;;;;7.40;1.70;;;;;;;-144.19;100.00;78522.50;6132152;23;20032;-86
2022/01/17 00:59:25;;;;;;;9.20;1.77;;;;;;;-144.19;100.00;78512.66;6131850;23;20027;-88
2022/01/17 01:01:51;;;;;;;11.55;1.40;;;;;;;-144.19;100.00;78512.66;6131952;23;20025;-85
2022/01/17 01:04:18;;;;;;;7.47;1.60;;;;;;;-144.19;100.00;78512.66;6145547;23;20358;-87
2022/01/17 01:06:44;;;;;;;6.03;1.77;;;;;;;-144.19;100.00;78512.66;6153466;23;20028;-86
2022/01/17 01:09:11;;;;;;;9.73;1.50;;;;;;;-144.19;100.00;78506.75;6153771;23;20474;-86
2022/01/17 01:11:37;;;;;;;9.97;1.40;;;;;;;-144.19;100.00;78500.84;6153804;23;20027;-84
2022/01/17 01:14:04;;;;;;;10.82;1.70;;;;;;;-144.19;100.00;78483.13;6154296;23;20021;-88
2022/01/17 01:16:33;;;;;;;15.52;2.13;;;;;;;-144.19;100.00;78512.66;6157468;23;20035;-87
2022/01/17 01:21:46;;;;;;;7.82;1.75;;;;;;;-144.19;100.00;78492.97;6157297;23;20027;-91
2022/01/17 01:29:48;;;;;;;9.85;2.17;;;;;;;-144.19;100.00;78498.88;6156990;23;20027;-85
2022/01/17 01:32:20;;;;;;;12.70;1.88;;;;;;;-144.19;100.00;78518.56;6154697;23;20033;-88
2022/01/17 01:34:51;;;;;;;12.40;1.42;;;;;;;-144.19;100.00;78522.50;6154095;23;20032;-87
2022/01/17 01:37:18;;;;;;;7.13;1.50;;;;;;;-144.19;100.00;78526.47;6152849;23;20032;-85
2022/01/17 01:39:47;;;;;;;9.05;1.70;;;;;;;-144.19;100.00;78530.41;6153709;23;20477;-87
2022/01/17 01:42:16;;;;;;;12.23;1.65;;;;;;;-144.19;100.00;78536.31;6153389;23;20454;-87
2022/01/17 01:44:44;;;;;;;10.73;1.40;;;;;;;-144.19;100.00;78540.25;6155213;23;20022;-87
2022/01/17 01:47:11;;;;;;;7.82;1.40;;;;;;;-144.19;100.00;78532.38;6154962;23;20018;-86
2022/01/17 01:49:37;;;;;;;5.05;1.30;;;;;;;-144.19;100.00;78510.69;6153872;23;20025;-87
2022/01/17 01:52:04;;;;;;;7.43;1.57;;;;;;;-144.19;100.00;78522.50;6152954;23;20031;-87
2022/01/17 01:54:30;;;;;;;12.02;2.25;;;;;;;-144.19;100.00;78526.47;6154577;23;20403;-86
2022/01/17 01:56:57;;;;;;;8.38;1.83;;;;;;;-144.19;100.00;78512.66;6153751;23;20022;-87
2022/01/17 01:59:24;;;;;;;15.20;1.67;;;;;;;-144.19;100.00;78516.59;6154549;23;20032;-86
2022/01/17 02:01:52;;;;;;;7.00;1.10;;;;;;;-144.19;100.00;78510.69;6153843;23;20026;-87
2022/01/17 02:04:18;;;;;;;10.90;1.55;;;;;;;-144.19;100.00;78516.59;6153065;23;20018;-87
2022/01/17 02:06:45;;;;;;;9.52;1.60;;;;;;;-144.19;100.00;78520.56;6154658;23;20446;-88
2022/01/17 02:09:12;;;;;;;9.07;2.03;;;;;;;-144.19;100.00;78512.66;6156130;23;20077;-87
2022/01/17 02:11:38;;;;;;;13.93;1.57;;;;;;;-144.19;100.00;78522.50;6153350;23;20028;-86
2022/01/17 02:14:05;;;;;;;8.43;1.85;;;;;;;-144.19;100.00;78516.59;6153302;23;20591;-88
2022/01/17 02:16:32;;;;;;;8.45;1.50;;;;;;;-144.19;100.00;78536.31;6153670;23;20022;-87
2022/01/17 02:18:59;;;;;;;14.60;2.25;;;;;;;-144.19;100.00;78534.34;6154885;23;20670;-87
2022/01/17 02:21:46;;;;;;;8.35;1.50;;;;;;;-144.19;100.00;78540.25;6153846;23;20025;-86
2022/01/17 02:24:18;;;;;;;15.68;1.75;;;;;;;-144.19;100.00;78538.28;6152440;23;20358;-90
2022/01/17 02:26:46;;;;;;;11.55;1.70;;;;;;;-144.19;100.00;78534.34;6152739;23;20484;-88
2022/01/17 02:29:13;;;;;;;9.95;1.33;;;;;;;-144.19;100.00;78520.56;6153207;23;20464;-87
2022/01/17 02:31:39;;;;;;;9.73;1.70;;;;;;;-144.19;100.00;78504.78;6152862;23;20100;-86
2022/01/17 02:34:06;;;;;;;8.75;1.55;;;;;;;-144.19;100.00;78510.69;6152661;23;20013;-86
2022/01/17 02:36:32;;;;;;;10.65;2.47;;;;;;;-144.19;100.00;78502.81;6153773;23;20029;-87
2022/01/17 02:38:59;;;;;;;12.83;2.17;;;;;;;-144.19;100.00;78500.84;6153476;23;20022;-87
2022/01/17 02:41:30;;;;;;;9.75;1.60;;;;;;;-144.19;100.00;78492.97;6153634;23;20745;-88
2022/01/17 02:43:56;;;;;;;14.52;2.83;;;;;;;-144.19;100.00;78489.03;6153130;23;20100;-84
2022/01/17 02:46:26;;;;;;;9.65;2.03;;;;;;;-144.19;100.00;78485.09;6153125;23;20025;-86
2022/01/17 02:48:55;;;;;;;12.15;1.80;;;;;;;-144.19;100.00;78491.00;6153195;23;20024;-88
2022/01/17 02:51:22;;;;;;;6.35;1.98;;;;;;;-144.19;100.00;78522.50;6153261;23;20021;-87
2022/01/17 02:53:49;;;;;;;;;;;;;;;-144.19;100.00;78512.66;6152864;23;20024;-86
2022/01/17 02:56:16;;;;;;;9.68;1.90;;;;;;;-144.19;100.00;78512.66;6153107;23;19923;-86
2022/01/17 02:58:43;;;;;;;8.68;1.27;;;;;;;-144.19;100.00;78518.56;6152736;23;20017;-90
2022/01/17 03:01:13;;;;;;;12.55;1.77;;;;;;;-144.19;100.00;78518.56;6154672;23;20017;-88
2022/01/17 03:03:41;;;;;;;12.57;1.65;;;;;;;-144.19;100.00;78518.56;6152240;23;20021;-87
2022/01/17 03:06:09;;;;;;;10.73;2.40;;;;;;;-144.19;100.00;78510.69;6153040;23;20309;-88
2022/01/17 03:08:37;;;;;;;11.00;2.60;;;;;;;-144.19;100.00;78496.91;6152836;23;20370;-88
2022/01/17 03:11:05;;;;;;;9.30;1.35;;;;;;;-144.19;100.00;78498.88;6152878;23;20419;-87
2022/01/17 03:13:36;;;;;;;12.80;1.70;;;;;;;-144.19;100.00;78506.75;6152745;23;20028;-87
2022/01/17 03:16:10;;;;;;;10.30;1.70;;;;;;;-144.19;100.00;78520.56;6152597;23;20025;-87
2022/01/17 03:18:41;;;;;;;7.82;1.42;;;;;;;-144.19;100.00;78504.78;6152912;23;20021;-85
2022/01/17 03:21:09;;;;;;;9.48;1.55;;;;;;;-144.19;100.00;78504.78;6153075;23;20343;-87
2022/01/17 03:23:37;;;;;;;11.68;1.65;;;;;;;-144.19;100.00;78496.91;6152930;23;20044;-87
2022/01/17 03:26:05;;;;;;;11.10;1.42;;;;;;;-144.19;100.00;78485.09;6152903;23;20335;-87
2022/01/17 03:28:31;;;;;;;;;;;;;;;-144.19;100.00;78498.88;6152912;23;20568;-87
2022/01/17 03:30:59;;;;;;;12.15;2.35;;;;;;;-144.19;100.00;78496.91;6153375;23;19923;-87
2022/01/17 03:33:26;;;;;;;19.85;2.45;;;;;;;-144.19;100.00;78500.84;6152535;23;20473;-89
2022/01/17 03:35:53;;;;;;;12.45;3.05;;;;;;;-144.19;100.00;78512.66;6154151;23;20017;-86
2022/01/17 03:38:21;;;;;;;10.07;3.30;;;;;;;-144.19;100.00;78520.56;6153868;23;20024;-87
2022/01/17 03:40:50;;;;;;;10.07;2.17;;;;;;;-144.19;100.00;78540.25;6152204;23;20017;-86
2022/01/17 03:43:21;;;;;;;12.07;1.75;;;;;;;-144.19;100.00;78528.44;6153250;23;20014;-88
2022/01/17 03:45:49;;;;;;;15.77;3.17;;;;;;;-144.19;100.00;78520.56;6154347;23;20101;-88
2022/01/17 03:48:17;;;;;;;15.40;1.70;;;;;;;-144.19;100.00;78508.72;6153138;23;20470;-87
2022/01/17 03:50:44;;;;;;;12.98;1.98;;;;;;;-144.19;100.00;78512.66;6153379;23;20021;-86
2022/01/17 03:53:11;;;;;;;15.32;3.65;;;;;;;-144.19;100.00;78512.66;6153034;23;20027;-88
2022/01/17 03:55:37;;;;;;;8.18;1.40;;;;;;;-144.19;100.00;78530.41;6153271;23;20017;-86
2022/01/17 03:58:05;;;;;;;11.45;2.30;;;;;;;-144.19;100.00;78536.31;6153893;23;20104;-86
2022/01/17 04:00:37;;;;;;;10.40;1.80;;;;;;;-144.19;100.00;78559.94;6153794;23;20021;-86
2022/01/17 04:03:03;;;;;;;11.60;2.28;;;;;;;-144.19;100.00;78563.88;6153176;23;20021;-88
2022/01/17 04:05:30;;;;;;;13.35;1.95;;;;;;;-144.19;100.00;78552.06;6129321;23;20032;-86
2022/01/17 04:07:57;;;;;;;20.08;2.50;;;;;;;-144.19;100.00;78556.00;6153867;23;20067;-86
2022/01/17 04:10:23;;;;;;;10.17;1.83;;;;;;;-144.19;100.00;78540.25;6128878;23;20331;-88
2022/01/17 04:12:50;;;;;;;9.15;2.00;;;;;;;-144.19;100.00;78563.88;6128138;23;20249;-87
2022/01/17 04:15:16;;;;;;;10.82;1.80;;;;;;;-144.19;100.00;78563.88;6154465;23;20024;-88
2022/01/17 04:17:43;;;;;;;13.13;2.10;;;;;;;-144.19;100.00;78559.94;6155115;23;20472;-86
2022/01/17 04:20:16;;;;;;;10.65;1.60;;;;;;;-144.19;100.00;78554.03;6128094;23;20100;-87
2022/01/17 04:22:50;;;;;;;13.65;2.95;;;;;;;-144.19;100.00;78587.50;6127928;23;20179;-87
2022/01/17 04:25:17;;;;;;;10.02;1.63;;;;;;;-144.19;100.00;78577.66;6127536;23;20647;-87
2022/01/17 04:27:43;;;;;;;11.23;1.92;;;;;;;-144.19;100.00;78595.38;6154224;23;20339;-87
2022/01/17 04:30:10;;;;;;;16.88;2.05;;;;;;;-144.19;100.00;78583.56;6127765;23;20022;-85
2022/01/17 04:32:36;;;;;;;9.13;2.40;;;;;;;-144.19;100.00;78585.53;6128029;23;20018;-86
2022/01/17 04:35:03;;;;;;;9.37;2.03;;;;;;;-144.19;100.00;78593.41;6153402;23;20362;-87
2022/01/17 04:37:30;;;;;;;11.00;3.13;;;;;;;-144.19;100.00;78579.63;6128077;23;20036;-86
2022/01/17 04:39:56;;;;;;;16.83;1.80;;;;;;;-144.19;100.00;78579.63;6154145;23;20025;-86
2022/01/17 04:42:27;;;;;;;10.80;1.90;;;;;;;-144.19;100.00;78579.63;6154315;23;20022;-86
2022/01/17 04:45:07;;;;;;;15.80;2.40;;;;;;;-144.19;100.00;78575.69;6128907;23;20257;-84
2022/01/17 04:47:39;;;;;;;9.18;1.85;;;;;;;-144.19;100.00;78569.78;6128272;23;20473;-87
2022/01/17 04:50:11;;;;;;;10.23;1.58;;;;;;;-144.19;100.00;78575.69;6153991;23;20042;-86
2022/01/17 04:52:37;;;;;;;16.30;2.88;;;;;;;-144.19;100.00;78559.94;6127624;23;20028;-86
2022/01/17 04:55:20;;;;;;;8.18;1.83;;;;;;;-144.19;100.00;78569.78;6135350;23;20026;-85
2022/01/17 04:57:47;;;;;;;15.93;2.10;;;;;;;-144.19;100.00;78567.81;6156471;23;20102;-88
2022/01/17 05:00:17;;;;;;;14.57;3.30;;;;;;;-144.19;100.00;78563.88;6131083;23;20120;-87
2022/01/17 05:02:44;;;;;;;12.10;2.97;;;;;;;-144.19;100.00;78540.25;6130530;23;20077;-87
2022/01/17 05:05:11;;;;;;;14.27;2.72;;;;;;;-144.19;100.00;78563.88;6149137;23;20072;-90
2022/01/17 05:07:39;;;;;;;;;;;;;;;-144.19;100.00;78577.66;6155940;23;20033;-88
2022/01/17 05:10:11;;;;;;;14.90;2.53;;;;;;;-144.19;100.00;78571.75;6155889;23;19927;-89
2022/01/17 05:12:38;;;;;;;9.18;1.70;;;;;;;-144.19;100.00;78563.88;6155479;23;20029;-89
2022/01/17 05:15:11;;;;;;;12.35;2.10;;;;;;;-144.19;100.00;78571.75;6156835;23;20125;-89
2022/01/17 05:17:43;;;;;;;14.25;2.13;;;;;;;-144.19;100.00;78587.50;6156511;23;20104;-89
2022/01/17 05:20:10;;;;;;;12.10;1.75;;;;;;;-144.19;100.00;78567.81;6160692;23;20031;-90
2022/01/17 05:22:37;;;;;;;;;;;;;;;-144.19;100.00;78552.06;6157947;23;20044;-90
2022/01/17 05:25:07;;;;;;;10.55;1.92;;;;;;;-144.19;100.00;78550.09;6155642;23;19927;-90
2022/01/17 05:27:35;;;;;;;14.18;3.08;;;;;;;-144.19;100.00;78544.19;6155442;23;20080;-90
2022/01/17 05:30:08;;;;;;;11.02;1.88;;;;;;;-144.19;100.00;78552.06;6155708;23;20077;-90
2022/01/17 05:32:35;;;;;;;14.45;2.28;;;;;;;-144.19;100.00;78556.00;6159757;23;20027;-89
2022/01/17 05:35:03;;;;;;;12.80;1.73;;;;;;;-144.19;100.00;78536.31;6157082;23;20021;-89
2022/01/17 05:37:29;;;;;;;11.63;1.63;;;;;;;-144.19;100.00;78563.88;6156761;23;20028;-90
2022/01/17 05:39:56;;;;;;;12.18;2.45;;;;;;;-144.19;100.00;78567.81;6157864;23;20375;-90
2022/01/17 05:42:24;;;;;;;14.45;1.73;;;;;;;-144.19;100.00;78563.88;6153776;23;20021;-89
2022/01/17 05:44:52;;;;;;;8.85;1.63;;;;;;;-144.19;100.00;78557.97;6155490;23;20097;-90
2022/01/17 05:47:19;;;;;;;15.13;2.28;;;;;;;-144.19;100.00;78579.63;6155110;23;20024;-89
2022/01/17 05:49:46;;;;;;;11.55;2.15;;;;;;;-144.19;100.00;78565.84;6157187;23;20021;-90
2022/01/17 05:52:12;;;;;;;13.32;1.73;;;;;;;-144.19;100.00;78575.69;6156487;23;20028;-89
2022/01/17 05:54:39;;;;;;;11.98;2.20;;;;;;;-144.19;100.00;78585.53;6155648;23;20072;-90
2022/01/17 05:57:06;;;;;;;9.95;2.42;;;;;;;-144.19;100.00;78575.69;6155005;23;20096;-90
2022/01/17 05:59:32;;;;;;;16.90;2.47;;;;;;;-144.19;100.00;78548.13;6158571;23;20085;-89
2022/01/17 06:02:04;;;;;;;10.43;1.63;;;;;;;-144.19;100.00;78540.25;6155101;23;20022;-89
2022/01/17 06:04:31;;;;;;;7.82;1.63;;;;;;;-144.19;100.00;78552.06;6155042;23;20028;-89
2022/01/17 06:06:58;;;;;;;14.82;2.85;;;;;;;-144.19;100.00;78544.19;6156808;23;20021;-89
2022/01/17 06:09:24;;;;;;;14.13;2.45;;;;;;;-144.19;100.00;78544.19;6157811;23;20036;-89
2022/01/17 06:11:54;;;;;;;12.73;2.90;;;;;;;-144.19;100.00;78556.00;6154992;23;20021;-89
2022/01/17 06:14:21;;;;;;;11.10;1.90;;;;;;;-144.19;100.00;78559.94;6157179;23;20018;-89
2022/01/17 06:16:48;;;;;;;;;;;;;;;-144.19;100.00;78554.03;6155854;23;20022;-90
2022/01/17 06:19:15;;;;;;;9.70;2.47;;;;;;;-144.19;100.00;78556.00;6157352;23;20595;-89
2022/01/17 06:21:42;;;;;;;13.70;2.22;;;;;;;-144.19;100.00;78559.94;6156514;23;20375;-89
2022/01/17 06:24:14;;;;;;;11.68;2.00;;;;;;;-144.19;100.00;78544.19;6169847;23;20013;-89
2022/01/17 06:26:41;;;;;;;14.57;2.30;;;;;;;-144.19;100.00;78556.00;6156231;23;20024;-89
2022/01/17 06:29:11;;;;;;;7.70;1.60;;;;;;;-144.19;100.00;78538.28;6156093;23;20018;-89
2022/01/17 06:31:39;;;;;;;13.43;2.53;;;;;;;-144.19;100.00;78532.38;6155462;23;20021;-89
2022/01/17 06:34:06;;;;;;;15.57;2.47;;;;;;;-144.19;100.00;78544.19;6158220;23;20096;-89
2022/01/17 06:36:32;;;;;;;12.60;2.00;;;;;;;-144.19;100.00;78518.56;6157108;23;20104;-90
2022/01/17 06:39:00;;;;;;;13.80;2.03;;;;;;;-144.19;100.00;78524.50;6159015;23;20096;-89
2022/01/17 06:41:27;;;;;;;8.73;2.50;;;;;;;-144.19;100.00;78544.19;6156399;23;20076;-90
2022/01/17 06:43:54;;;;;;;7.75;1.88;;;;;;;-144.19;100.00;78561.91;6155269;23;20022;-88
2022/01/17 06:46:20;;;;;;;11.27;2.10;;;;;;;-144.19;100.00;78532.38;6158907;23;20021;-91
2022/01/17 06:48:47;;;;;;;13.10;3.83;;;;;;;-144.19;100.00;78544.19;6155096;23;20237;-90
2022/01/17 06:51:14;;;;;;;8.57;1.90;;;;;;;-144.19;100.00;78557.97;6154541;23;20044;-90
2022/01/17 06:53:42;;;;;;;15.57;2.58;;;;;;;-144.19;100.00;78575.69;6153195;23;20429;-90
2022/01/17 06:56:09;;;;;;;13.82;2.20;;;;;;;-144.19;100.00;78567.81;6156826;23;20108;-90
2022/01/17 06:58:36;;;;;;;14.57;2.85;;;;;;;-144.19;100.00;78583.56;6155886;23;20032;-90
2022/01/17 07:01:06;;;;;;;25.40;3.15;;;;;;;-144.19;100.00;78569.78;6157049;23;20021;-90
2022/01/17 07:03:32;;;;;;;15.88;3.38;;;;;;;-144.19;100.00;78583.56;6154095;23;20025;-90
2022/01/17 07:05:59;;;;;;;13.77;2.70;;;;;;;-144.19;100.00;78595.38;6155721;23;20013;-90
2022/01/17 07:08:26;;;;;;;16.77;2.72;;;;;;;-144.19;100.00;78613.09;6155568;23;20256;-91
2022/01/17 07:10:52;;;;;;;9.50;2.25;;;;;;;-144.19;100.00;78615.09;6156418;23;20440;-90
2022/01/17 07:13:20;;;;;;;8.50;1.77;;;;;;;-144.19;100.00;78599.31;6154940;23;20462;-91
2022/01/17 07:15:46;;;;;;;12.00;1.87;;;;;;;-144.19;100.00;78579.63;6155234;23;20018;-90
2022/01/17 07:18:13;;;;;;;15.93;2.13;;;;;;;-144.19;100.00;78577.66;6155487;23;20101;-90
2022/01/17 07:20:45;;;;;;;7.47;1.73;;;;;;;-144.19;100.00;78571.75;6155662;23;20191;-90
2022/01/17 07:23:12;;;;;;;14.75;3.28;;;;;;;-144.19;100.00;78571.75;6154177;23;20067;-90
2022/01/17 07:25:38;;;;;;;15.45;2.55;;;;;;;-144.19;100.00;78557.97;6155882;23;20018;-90
2022/01/17 07:28:09;;;;;;;6.95;2.33;;;;;;;-144.19;100.00;78587.50;6154004;23;20036;-90
2022/01/17 07:30:36;;;;;;;12.48;2.40;;;;;;;-144.19;100.00;78567.81;6157386;23;20029;-90
2022/01/17 07:33:05;;;;;;;11.90;2.08;;;;;;;-144.19;100.00;78559.94;6155200;23;20021;-90
2022/01/17 07:35:32;;;;;;;14.40;3.70;;;;;;;-144.19;100.00;78548.13;6156153;23;20092;-90
2022/01/17 07:37:59;;;;;;;11.35;2.05;;;;;;;-144.19;100.00;78544.19;6156615;23;20063;-90
2022/01/17 07:40:25;;;;;;;11.13;2.58;;;;;;;-144.19;100.00;78552.06;6155790;23;20026;-91
2022/01/17 07:42:52;;;;;;;13.27;2.53;;;;;;;-144.19;100.00;78548.13;6155006;23;20021;-90
2022/01/17 07:45:20;;;;;;;13.17;3.10;;;;;;;-144.19;100.00;78561.91;6155302;23;20040;-89
2022/01/17 07:50:23;;;;;;;7.63;2.50;;;;;;;-144.19;100.00;78561.91;6155785;23;20100;-93
2022/01/17 07:52:52;;;;;;;9.20;3.10;;;;;;;-144.19;100.00;78563.88;6153307;23;20028;-90
2022/01/17 07:55:19;;;;;;;12.65;3.40;;;;;;;-144.19;100.00;78544.19;6160139;23;20097;-89
2022/01/17 07:57:46;;;;;;;11.77;3.70;;;;;;;-144.19;100.00;78563.88;6155887;23;20068;-90
2022/01/17 08:00:22;;;;;;;9.65;3.40;;;;;;;-144.19;100.00;78575.69;6172905;23;20018;-90
2022/01/17 08:02:50;;;;;;;12.43;4.00;;;;;;;-144.19;100.00;78579.63;6157939;23;20041;-91
2022/01/17 08:05:16;;;;;;;19.42;4.25;;;;;;;-144.19;100.00;78567.81;6159967;23;20022;-88
2022/01/17 08:07:44;;;;;;;17.88;4.78;;;;;;;-144.19;100.00;78569.78;6155223;23;20021;-89
2022/01/17 08:10:14;;;;;;;17.38;4.10;;;;;;;-144.19;100.00;78585.53;6158740;23;20028;-87
2022/01/17 08:12:42;;;;;;;22.02;5.47;;;;;;;-144.19;100.00;78597.34;6156031;23;20028;-86
2022/01/17 08:15:10;;;;;;;14.75;4.82;;;;;;;-144.19;100.00;78607.19;6155123;23;20017;-86
2022/01/17 08:17:36;;;;;;;13.50;4.68;;;;;;;-144.19;100.00;78599.31;6155249;23;20061;-87
2022/01/17 08:20:04;;;;;;;16.52;4.82;;;;;;;-144.19;100.00;78591.44;6154746;23;20026;-88
2022/01/17 08:22:31;;;;;;;16.08;4.80;;;;;;;-144.19;100.00;78575.69;6152691;23;20629;-88
2022/01/17 08:24:57;;;;;;;19.93;5.33;;;;;;;-144.19;100.00;78579.63;6150290;23;20049;-88
2022/01/17 08:27:23;;;;;;;13.47;5.70;;;;;;;-144.19;100.00;78571.75;6153274;23;20398;-88
2022/01/17 08:29:50;;;;;;;12.87;5.00;;;;;;;-144.19;100.00;78587.50;6153277;23;20021;-88
2022/01/17 08:32:36;;;;;;;19.25;5.65;;;;;;;-144.19;100.00;78585.53;6156510;23;20268;-88
2022/01/17 08:35:03;;;;;;;14.20;5.72;;;;;;;-144.19;100.00;78571.75;6154465;23;20021;-88
2022/01/17 08:37:30;;;;;;;13.07;5.63;;;;;;;-144.19;100.00;78567.81;6154445;23;20458;-87
2022/01/17 08:39:58;;;;;;;;;;;;;;;-144.19;100.00;78575.69;6155119;23;20510;-90
2022/01/17 08:42:26;;;;;;;12.05;5.68;;;;;;;-144.19;100.00;78583.56;6154570;23;19925;-89
2022/01/17 08:44:55;;;;;;;15.75;6.20;;;;;;;-144.19;100.00;78581.59;6156033;23;20019;-90
2022/01/17 08:47:23;;;;;;;20.63;7.43;;;;;;;-144.19;100.00;78575.69;6154541;23;20017;-89
2022/01/17 08:49:50;;;;;;;19.80;6.95;;;;;;;-144.19;100.00;78569.78;6153896;23;20057;-90
2022/01/17 08:52:17;;;;;;;15.55;6.65;;;;;;;-144.19;100.00;78583.56;6155445;23;20033;-89
2022/01/17 08:54:44;;;;;;;16.15;7.50;;;;;;;-144.19;100.00;78571.75;6153538;23;20017;-90
2022/01/17 08:57:11;;;;;;;23.77;7.70;;;;;;;-144.19;100.00;78567.81;6155374;23;20025;-90
2022/01/17 08:59:38;;;;;;;17.50;7.53;;;;;;;-144.19;100.00;78575.69;6155014;23;20037;-89
2022/01/17 09:02:04;;;;;;;17.85;7.70;;;;;;;-144.19;100.00;78559.94;6155527;23;20043;-89
2022/01/17 09:04:31;;;;;;;15.18;7.72;;;;;;;-144.19;100.00;78563.88;6154824;23;20335;-90
2022/01/17 09:06:58;;;;;;;17.17;8.55;;;;;;;-144.19;100.00;78557.97;6156182;23;20017;-90
2022/01/17 09:09:24;;;;;;;20.65;8.80;;;;;;;-144.19;100.00;78559.94;6156261;23;20022;-90
2022/01/17 09:11:51;;;;;;;13.90;8.60;;;;;;;-144.19;100.00;78559.94;6155336;23;20031;-89
2022/01/17 09:14:18;;;;;;;21.20;8.85;;;;;;;-144.19;100.00;78548.13;6155920;23;20097;-90
2022/01/17 09:16:44;;;;;;;19.17;9.10;;;;;;;-144.19;100.00;78548.13;6154177;23;20170;-90
2022/01/17 09:19:12;;;;;;;14.77;8.43;;;;;;;-144.19;100.00;78563.88;6154950;23;20513;-89
2022/01/17 09:21:38;;;;;;;18.38;8.75;;;;;;;-144.19;100.00;78556.00;6155131;23;20784;-90
2022/01/17 09:24:05;;;;;;;23.52;9.63;;;;;;;-144.19;100.00;78540.25;6153463;23;20080;-90
2022/01/17 09:26:32;;;;;;;17.65;9.45;;;;;;;-144.19;100.00;78532.38;6153940;23;20024;-90
2022/01/17 09:28:58;;;;;;;19.00;8.83;;;;;;;-144.19;100.00;78542.22;6154189;23;20022;-90
2022/01/17 09:31:25;;;;;;;16.33;7.72;;;;;;;-144.19;100.00;78542.22;6153952;23;20495;-89
2022/01/17 09:33:51;;;;;;;20.60;8.13;;;;;;;-144.19;100.00;78534.34;6152958;23;20025;-88
2022/01/17 09:36:20;;;;;;;15.52;8.25;;;;;;;-144.19;100.00;78556.00;6166856;23;20057;-90
2022/01/17 09:38:46;;;;;;;18.70;7.97;;;;;;;-144.19;100.00;78548.13;6155958;23;20041;-89
2022/01/17 09:41:13;;;;;;;15.63;8.83;;;;;;;-144.19;100.00;78536.31;6155591;23;20028;-89
2022/01/17 09:43:47;;;;;;;18.75;8.35;;;;;;;-144.19;100.00;78540.25;6154089;23;20638;-89
2022/01/17 09:46:15;;;;;;;15.43;7.53;;;;;;;-144.19;100.00;78552.06;6155395;23;20050;-90
2022/01/17 09:48:47;;;;;;;19.45;8.18;;;;;;;-144.19;100.00;78544.19;6154429;23;20577;-90
2022/01/17 09:51:30;;;;;;;22.65;8.15;;;;;;;-144.19;100.00;78540.25;6155635;23;20104;-89
2022/01/17 09:53:59;;;;;;;23.40;8.60;;;;;;;-144.19;100.00;78532.38;6153527;23;20025;-89
2022/01/17 09:56:28;;;;;;;20.75;8.38;;;;;;;-144.19;100.00;78534.34;6153971;23;20031;-89
2022/01/17 09:58:54;;;;;;;19.23;8.07;;;;;;;-144.19;100.00;78538.28;6153109;23;20068;-89
2022/01/17 10:01:25;;;;;;;16.23;8.40;;;;;;;-144.19;100.00;78520.56;6153120;23;20484;-90
2022/01/17 10:03:56;;;;;;;20.98;8.60;;;;;;;-144.19;100.00;78510.69;6154008;23;20032;-88
2022/01/17 10:06:24;;;;;;;20.42;8.93;;;;;;;-144.19;100.00;78522.50;6154609;23;20076;-89
2022/01/17 10:09:21;;;;;;;24.42;8.63;;;;;;;-144.19;100.00;78516.59;6151822;23;20031;-89
2022/01/17 10:12:11;;;;;;;18.63;8.15;;;;;;;-144.19;100.00;78508.72;6128902;23;20025;-90
2022/01/17 10:14:39;;;;;;;17.83;8.57;;;;;;;-144.19;100.00;78500.84;6128004;23;20390;-89
2022/01/17 10:17:14;;;;;;;14.05;7.22;;;;;;;-144.19;100.00;78516.59;6129389;23;20021;-89
2022/01/17 10:19:41;;;;;;;15.77;7.97;;;;;;;-144.19;100.00;78530.41;6151904;23;20022;-89
2022/01/17 10:22:17;;;;;;;16.30;9.25;;;;;;;-144.19;100.00;78532.38;6128801;23;20025;-89
2022/01/17 10:27:50;;;;;;;24.45;8.60;;;;;;;-144.19;100.00;78494.94;6153470;23;20029;-89
2022/01/17 10:30:31;;;;;;;21.95;8.82;;;;;;;-144.19;100.00;78494.94;6152873;23;20031;-89
2022/01/17 10:35:57;;;;;;;20.30;8.30;;;;;;;-144.19;100.00;78500.84;6153141;23;20078;-88
2022/01/17 10:38:27;;;;;;;21.00;7.32;;;;;;;-144.19;100.00;78500.84;6127514;23;20122;-89
2022/01/17 10:40:59;;;;;;;25.92;8.43;;;;;;;-144.19;100.00;78491.00;6155304;23;20102;-89
2022/01/17 10:43:34;;;;;;;20.98;7.82;;;;;;;-144.19;100.00;78465.41;6129083;23;20051;-89
2022/01/17 10:46:06;;;;;;;27.30;8.10;;;;;;;-144.19;100.00;78465.41;6156427;23;20041;-89
2022/01/17 10:48:36;;;;;;;24.67;8.05;;;;;;;-144.19;100.00;78449.66;6130450;23;20032;-88
2022/01/17 10:51:05;;;;;;;21.85;6.93;;;;;;;-144.19;100.00;78469.34;6130309;23;20048;-90
2022/01/17 10:53:32;;;;;;;17.30;8.05;;;;;;;-144.19;100.00;78453.59;6130448;23;20024;-87
2022/01/17 10:56:00;;;;;;;19.77;7.88;;;;;;;-144.19;100.00;78441.78;6130432;23;20089;-89
2022/01/17 10:58:29;;;;;;;16.67;6.88;;;;;;;-144.19;100.00;78453.59;6156384;23;20354;-89
2022/01/17 11:00:58;;;;;;;36.25;9.27;;;;;;;-144.19;100.00;78445.72;6129614;23;20025;-89
2022/01/17 11:03:28;;;;;;;27.65;7.20;;;;;;;-144.19;100.00;78445.72;6133504;23;20021;-89
2022/01/17 11:08:35;;;;;;;21.27;7.30;;;;;;;-144.19;100.00;78433.91;6176756;23;20446;-88
2022/01/17 11:12:00;;;;;;;;;;;;;;;;;;;;;
2022/01/17 11:15:00;;;;;;;28.73;7.28;;;;;;;-144.19;100.00;78433.91;6017496;23;20032;-87
2022/01/17 11:18:20;;;;;;;25.00;7.00;;;;;;;-144.19;100.00;78424.06;5999776;24;20031;-90
2022/01/17 11:24:21;;;;;;;21.98;6.70;;;;;;;-144.19;100.00;78398.44;5968072;24;19919;-88
2022/01/17 11:26:53;;;;;;;26.20;5.88;;;;;;;-144.19;100.00;78404.34;5981263;23;20052;-87
2022/01/17 11:29:43;;;;;;;24.92;6.03;;;;;;;-144.19;100.00;78400.41;5972039;23;20028;-89
2022/01/17 11:32:16;;;;;;;24.35;6.63;;;;;;;-144.19;100.00;78398.44;6002112;23;20027;-89
2022/01/17 11:34:54;;;;;;;23.05;6.60;;;;;;;-144.19;100.00;78370.88;6000905;23;20028;-89
2022/01/17 11:37:27;;;;;;;22.80;7.32;;;;;;;-144.19;100.00;78388.59;6002176;24;20035;-88